Time;durP1;ratioP1;P1;durP2;ratioP2;P2;SDS_P1;SDS_P2;PMS_P1;PMS_P2;Temp;Humidity;BMP_temperature;BMP_pressure;BME280_temperature;BME280_humidity;BME280_pressure;Samples;Min_cycle;Max_cycle;Signal;HPM_P1;HPM_P2
2022/06/09 00:02:21;;;;;;;21.85;13.23;;;14.80;99.90;;;;;;5047893;28;20049;-83
2022/06/09 00:04:47;;;;;;;21.55;13.45;;;14.80;99.90;;;;;;5035203;28;20126;-83
2022/06/09 00:07:21;;;;;;;23.80;14.23;;;14.90;99.90;;;;;;5045289;28;20041;-84
2022/06/09 00:10:05;;;;;;;25.08;13.95;;;14.90;99.90;;;;;;5033758;28;20088;-83
2022/06/09 00:12:31;;;;;;;28.25;13.55;;;15.00;99.90;;;;;;5033686;28;20119;-83
2022/06/09 00:14:57;;;;;;;31.27;14.55;;;15.00;99.90;;;;;;5048341;28;20106;-84
2022/06/09 00:17:24;;;;;;;26.88;13.68;;;14.80;99.90;;;;;;5043932;28;20460;-83
2022/06/09 00:19:50;;;;;;;27.38;15.48;;;14.90;99.90;;;;;;5037531;28;20044;-83
2022/06/09 00:22:16;;;;;;;27.23;14.73;;;15.00;99.90;;;;;;5040420;28;20045;-82
2022/06/09 00:24:41;;;;;;;35.30;14.55;;;15.00;99.90;;;;;;5044569;28;20476;-83
2022/06/09 00:27:07;;;;;;;33.85;15.55;;;15.00;99.90;;;;;;5045101;28;20056;-83
2022/06/09 00:29:33;;;;;;;42.13;16.75;;;14.80;99.90;;;;;;5040143;28;20071;-83
2022/06/09 00:31:59;;;;;;;32.10;15.05;;;14.90;99.90;;;;;;5045806;28;20124;-82
2022/06/09 00:34:25;;;;;;;36.30;16.15;;;15.00;99.90;;;;;;5042388;28;20124;-84
2022/06/09 00:36:50;;;;;;;28.10;15.85;;;14.80;99.90;;;;;;5045625;28;20128;-85
2022/06/09 00:39:16;;;;;;;32.90;15.20;;;15.00;99.90;;;;;;5048448;28;20057;-86
2022/06/09 00:41:43;;;;;;;38.22;16.63;;;14.90;99.90;;;;;;5045772;28;20060;-85
2022/06/09 00:44:29;;;;;;;36.28;16.08;;;15.00;99.90;;;;;;5044597;28;20060;-84
2022/06/09 00:46:58;;;;;;;38.70;15.15;;;14.90;99.90;;;;;;5041187;28;20055;-85
2022/06/09 00:49:46;;;;;;;41.83;16.05;;;15.00;99.90;;;;;;5041638;28;20049;-86
2022/06/09 00:52:17;;;;;;;36.35;15.32;;;14.90;99.90;;;;;;5059808;28;20091;-84
2022/06/09 00:54:48;;;;;;;43.83;16.17;;;15.00;99.90;;;;;;5046110;28;20155;-85
2022/06/09 00:57:21;;;;;;;42.90;15.07;;;14.90;99.90;;;;;;5047073;28;20354;-86
2022/06/09 00:59:51;;;;;;;39.85;15.55;;;15.00;99.90;;;;;;5050294;28;20033;-85
2022/06/09 01:02:19;;;;;;;40.20;15.68;;;15.00;99.90;;;;;;5048025;28;20116;-85
2022/06/09 01:04:47;;;;;;;47.35;16.38;;;14.90;99.90;;;;;;5047992;28;20087;-86
2022/06/09 01:07:17;;;;;;;40.55;15.82;;;15.00;99.90;;;;;;5046087;28;20049;-85
2022/06/09 01:09:44;;;;;;;43.72;16.60;;;15.00;99.90;;;;;;5043624;28;20045;-85
2022/06/09 01:12:26;;;;;;;41.65;15.15;;;15.10;99.90;;;;;;5041762;28;20049;-86
2022/06/09 01:14:59;;;;;;;40.50;16.42;;;15.00;99.90;;;;;;5043279;28;20400;-86
2022/06/09 01:17:36;;;;;;;36.97;15.10;;;15.00;99.90;;;;;;5044970;28;20036;-87
2022/06/09 01:20:22;;;;;;;50.97;16.27;;;15.00;99.90;;;;;;5045620;28;20060;-85
2022/06/09 01:23:02;;;;;;;49.72;15.60;;;15.10;99.90;;;;;;5036447;28;20049;-86
2022/06/09 01:25:27;;;;;;;46.95;16.30;;;15.00;99.90;;;;;;5044811;28;20379;-86
2022/06/09 01:28:15;;;;;;;37.60;14.85;;;15.00;99.90;;;;;;5040757;28;20048;-87
2022/06/09 01:31:08;;;;;;;46.67;15.65;;;15.00;99.90;;;;;;5038872;28;20059;-86
2022/06/09 01:33:46;;;;;;;32.67;15.00;;;15.10;99.90;;;;;;5043710;28;20048;-86
2022/06/09 01:36:35;;;;;;;52.88;16.58;;;14.90;99.90;;;;;;5043428;28;20118;-86
2022/06/09 01:39:03;;;;;;;46.25;15.65;;;15.00;99.90;;;;;;5049413;28;20088;-87
2022/06/09 01:41:29;;;;;;;49.63;16.55;;;15.00;99.90;;;;;;5039649;28;20495;-85
2022/06/09 01:43:56;;;;;;;39.35;15.65;;;15.00;99.90;;;;;;5047665;28;20124;-88
2022/06/09 01:46:30;;;;;;;43.33;15.70;;;14.90;99.90;;;;;;5033890;28;20041;-88
2022/06/09 01:49:03;;;;;;;52.72;15.77;;;14.90;99.90;;;;;;5046112;28;20052;-87
2022/06/09 01:51:32;;;;;;;35.75;15.45;;;14.90;99.90;;;;;;5045361;28;20033;-89
2022/06/09 01:54:03;;;;;;;44.78;16.02;;;14.90;99.90;;;;;;5071791;28;20044;-86
2022/06/09 01:56:36;;;;;;;45.00;15.95;;;14.80;99.90;;;;;;5040386;28;20065;-87
2022/06/09 01:59:19;;;;;;;43.47;16.80;;;14.90;99.90;;;;;;5046267;28;20088;-89
2022/06/09 02:01:56;;;;;;;43.88;16.20;;;14.80;99.90;;;;;;5051670;28;20068;-85
2022/06/09 02:04:32;;;;;;;41.25;17.20;;;14.80;99.90;;;;;;5039377;28;20057;-88
2022/06/09 02:06:58;;;;;;;49.35;17.15;;;14.80;99.90;;;;;;5057455;28;20183;-87
2022/06/09 02:09:28;;;;;;;44.55;17.40;;;14.80;99.90;;;;;;5052690;28;20445;-87
2022/06/09 02:11:56;;;;;;;51.33;18.33;;;14.80;99.90;;;;;;5051322;28;20349;-86
2022/06/09 02:14:26;;;;;;;39.72;17.13;;;14.80;99.90;;;;;;5049134;28;20148;-88
2022/06/09 02:16:53;;;;;;;43.50;18.45;;;14.80;99.90;;;;;;5052042;28;20037;-90
2022/06/09 02:19:18;;;;;;;46.00;20.77;;;14.80;99.90;;;;;;5046497;28;20121;-88
2022/06/09 02:21:44;;;;;;;44.03;18.40;;;14.80;99.90;;;;;;5043554;28;20052;-88
2022/06/09 02:24:10;;;;;;;48.45;17.58;;;14.80;99.90;;;;;;5052139;28;20052;-88
2022/06/09 02:26:36;;;;;;;45.33;18.13;;;14.70;99.90;;;;;;5035652;28;20128;-88
2022/06/09 02:29:03;;;;;;;43.47;19.13;;;14.70;99.90;;;;;;5046477;28;20492;-89
2022/06/09 02:31:28;;;;;;;49.33;19.42;;;14.70;99.90;;;;;;5048383;28;20068;-88
2022/06/09 02:33:55;;;;;;;44.42;19.05;;;14.70;99.90;;;;;;5045043;28;20087;-89
2022/06/09 02:36:21;;;;;;;46.38;20.10;;;14.70;99.90;;;;;;5050502;28;20469;-88
2022/06/09 02:38:48;;;;;;;40.95;17.80;;;14.80;99.90;;;;;;5047967;28;20048;-88
2022/06/09 02:41:14;;;;;;;38.60;18.35;;;14.70;99.90;;;;;;5050931;28;20134;-87
2022/06/09 02:43:40;;;;;;;37.13;17.90;;;14.70;99.90;;;;;;5039605;28;20080;-89
2022/06/09 02:46:06;;;;;;;36.80;19.08;;;14.70;99.90;;;;;;5061180;28;20144;-88
2022/06/09 02:48:32;;;;;;;48.78;21.10;;;14.70;99.90;;;;;;5052471;28;20041;-88
2022/06/09 02:51:14;;;;;;;40.13;18.70;;;14.80;99.90;;;;;;5051516;28;20059;-88
2022/06/09 02:53:39;;;;;;;45.25;19.85;;;14.70;99.90;;;;;;5038465;28;20182;-89
2022/06/09 02:56:05;;;;;;;39.03;18.88;;;14.70;99.90;;;;;;5050427;28;20133;-91
2022/06/09 02:58:31;;;;;;;33.63;18.55;;;14.70;99.90;;;;;;5049585;28;20041;-88
2022/06/09 03:00:56;;;;;;;42.78;18.42;;;14.60;99.90;;;;;;5049906;28;20762;-87
2022/06/09 03:03:22;;;;;;;38.92;19.45;;;14.70;99.90;;;;;;5047851;28;20041;-87
2022/06/09 03:05:47;;;;;;;41.58;18.13;;;14.70;99.90;;;;;;5050752;28;20121;-87
2022/06/09 03:08:13;;;;;;;44.80;18.60;;;14.70;99.90;;;;;;5045944;28;20080;-87
2022/06/09 03:10:39;;;;;;;38.80;19.70;;;14.60;99.90;;;;;;5048585;28;20041;-88
2022/06/09 03:13:06;;;;;;;46.50;20.00;;;14.70;99.90;;;;;;5048208;28;20711;-87
2022/06/09 03:15:32;;;;;;;49.80;20.20;;;14.70;99.90;;;;;;5043935;28;20124;-86
2022/06/09 03:17:58;;;;;;;39.10;19.25;;;14.60;99.90;;;;;;5040002;28;20071;-87
2022/06/09 03:20:27;;;;;;;36.60;18.48;;;14.70;99.90;;;;;;5044783;28;20496;-89
2022/06/09 03:22:53;;;;;;;48.30;19.92;;;14.70;99.90;;;;;;5035514;28;20059;-88
2022/06/09 03:25:19;;;;;;;42.60;20.08;;;14.60;99.90;;;;;;5049310;28;20045;-87
2022/06/09 03:27:45;;;;;;;39.85;19.85;;;14.60;99.90;;;;;;5049281;28;20094;-86
2022/06/09 03:30:12;;;;;;;36.13;18.90;;;14.60;99.90;;;;;;5043511;28;20048;-86
2022/06/09 03:32:37;;;;;;;41.38;19.45;;;14.60;99.90;;;;;;5033126;28;20082;-86
2022/06/09 03:35:04;;;;;;;39.50;19.98;;;14.70;99.90;;;;;;5046984;28;20403;-84
2022/06/09 03:37:30;;;;;;;34.33;18.75;;;14.60;99.90;;;;;;5038892;28;20148;-87
2022/06/09 03:39:56;;;;;;;35.45;19.45;;;14.60;99.90;;;;;;5045580;28;20124;-87
2022/06/09 03:42:21;;;;;;;37.45;20.42;;;14.50;99.90;;;;;;5045440;28;20045;-86
2022/06/09 03:44:47;;;;;;;37.65;19.25;;;14.50;99.90;;;;;;5045745;28;20453;-85
2022/06/09 03:47:13;;;;;;;45.28;20.80;;;14.50;99.90;;;;;;5047170;28;20044;-85
2022/06/09 03:49:39;;;;;;;40.53;20.73;;;14.50;99.90;;;;;;5044464;28;20037;-87
2022/06/09 03:52:05;;;;;;;43.00;20.33;;;14.50;99.90;;;;;;5043362;28;20044;-84
2022/06/09 03:54:30;;;;;;;47.38;21.67;;;14.50;99.90;;;;;;5045025;28;20444;-84
2022/06/09 03:56:56;;;;;;;58.10;22.50;;;14.50;99.90;;;;;;5044687;28;20102;-84
2022/06/09 03:59:22;;;;;;;42.40;21.65;;;14.50;99.90;;;;;;5041050;28;20533;-85
2022/06/09 04:01:47;;;;;;;40.95;21.50;;;14.50;99.90;;;;;;5043733;28;20041;-83
2022/06/09 04:04:13;;;;;;;38.70;21.70;;;14.40;99.90;;;;;;5043782;28;20052;-83
2022/06/09 04:06:39;;;;;;;49.45;23.15;;;14.60;99.90;;;;;;5037491;28;20040;-85
2022/06/09 04:09:05;;;;;;;41.55;21.00;;;14.50;99.90;;;;;;5044331;28;20098;-84
2022/06/09 04:11:32;;;;;;;45.22;19.70;;;14.50;99.90;;;;;;5045300;28;20041;-88
2022/06/09 04:13:58;;;;;;;41.70;21.40;;;14.50;99.90;;;;;;5070972;28;20040;-84
2022/06/09 04:16:34;;;;;;;39.10;22.25;;;14.50;99.90;;;;;;5046895;28;20048;-82
2022/06/09 04:19:03;;;;;;;39.78;20.75;;;14.50;99.90;;;;;;5041283;28;20080;-84
2022/06/09 04:21:31;;;;;;;44.10;21.52;;;14.60;99.90;;;;;;5040475;28;20033;-83
2022/06/09 04:23:58;;;;;;;44.13;21.42;;;14.60;99.90;;;;;;5044213;28;20401;-82
2022/06/09 04:26:26;;;;;;;48.58;22.27;;;14.60;99.90;;;;;;5075790;28;20068;-84
2022/06/09 04:28:52;;;;;;;43.08;22.65;;;14.60;99.90;;;;;;5047089;28;20037;-83
2022/06/09 04:31:18;;;;;;;49.72;22.85;;;14.60;99.90;;;;;;5041093;28;20041;-82
2022/06/09 04:33:44;;;;;;;47.30;22.38;;;14.80;99.90;;;;;;5043982;28;20060;-83
2022/06/09 04:36:11;;;;;;;38.92;21.52;;;14.70;99.90;;;;;;5044889;28;20425;-82
2022/06/09 04:38:37;;;;;;;44.03;22.00;;;14.70;99.90;;;;;;5044709;28;20044;-81
2022/06/09 04:41:11;;;;;;;37.78;20.23;;;14.60;99.90;;;;;;5036463;28;20041;-82
2022/06/09 04:43:41;;;;;;;40.08;20.77;;;14.80;99.90;;;;;;5044474;28;20453;-83
2022/06/09 04:46:09;;;;;;;37.15;21.25;;;14.80;99.90;;;;;;5038858;28;20397;-82
2022/06/09 04:48:36;;;;;;;41.30;21.98;;;14.80;99.90;;;;;;5040441;28;20052;-81
2022/06/09 04:51:05;;;;;;;43.30;22.05;;;14.80;99.90;;;;;;5037073;28;20056;-81
2022/06/09 04:53:31;;;;;;;45.90;22.63;;;14.80;99.90;;;;;;5041411;28;20041;-82
2022/06/09 04:55:56;;;;;;;43.58;22.15;;;14.90;99.90;;;;;;5044445;28;20065;-84
2022/06/09 04:58:23;;;;;;;36.45;21.67;;;14.90;99.90;;;;;;5044580;28;20048;-82
2022/06/09 05:00:48;;;;;;;41.28;22.63;;;14.90;99.90;;;;;;5042669;28;20064;-81
2022/06/09 05:03:14;;;;;;;34.53;20.15;;;14.90;99.90;;;;;;5044005;28;20045;-81
2022/06/09 05:05:43;;;;;;;37.60;23.52;;;14.90;99.90;;;;;;5046131;28;20127;-82
2022/06/09 05:08:11;;;;;;;42.60;22.17;;;15.00;99.90;;;;;;5035858;28;20118;-81
2022/06/09 05:10:38;;;;;;;44.10;23.08;;;15.00;99.90;;;;;;5045831;28;20056;-81
2022/06/09 05:13:05;;;;;;;46.30;22.92;;;14.90;99.90;;;;;;5046434;28;20509;-82
2022/06/09 05:15:35;;;;;;;38.67;24.85;;;15.00;99.90;;;;;;5042486;28;20068;-82
2022/06/09 05:18:01;;;;;;;47.88;24.48;;;15.00;99.90;;;;;;5046122;28;20416;-81
2022/06/09 05:20:27;;;;;;;42.35;23.83;;;15.00;99.90;;;;;;5041489;28;20041;-82
2022/06/09 05:22:53;;;;;;;41.42;24.23;;;15.10;99.90;;;;;;5040280;28;20483;-81
2022/06/09 05:25:19;;;;;;;38.10;24.00;;;15.10;99.90;;;;;;5042925;28;20178;-82
2022/06/09 05:27:45;;;;;;;50.97;25.80;;;15.10;99.90;;;;;;5045390;28;20150;-83
2022/06/09 05:30:23;;;;;;;38.58;24.17;;;15.10;99.90;;;;;;5044523;28;20128;-82
2022/06/09 05:32:49;;;;;;;38.38;23.70;;;15.10;99.90;;;;;;5042629;28;20064;-82
2022/06/09 05:35:15;;;;;;;35.33;22.85;;;15.10;99.90;;;;;;5040919;28;21371;-82
2022/06/09 05:45:56;;;;;;;34.58;20.10;;;15.20;99.90;;;;;;5048072;28;20492;-83
2022/06/09 05:48:22;;;;;;;32.42;20.48;;;15.20;99.90;;;;;;5048289;28;20055;-82
2022/06/09 05:50:49;;;;;;;30.95;20.25;;;15.20;99.90;;;;;;5040553;28;20037;-82
2022/06/09 05:53:14;;;;;;;27.63;18.90;;;15.30;99.90;;;;;;5044058;28;20071;-82
2022/06/09 05:55:40;;;;;;;29.27;18.75;;;15.30;99.90;;;;;;5044882;28;20501;-83
2022/06/09 05:58:06;;;;;;;27.35;19.63;;;15.30;99.90;;;;;;5044581;28;20057;-82
2022/06/09 06:00:32;;;;;;;25.42;18.52;;;15.30;99.90;;;;;;5049198;28;20037;-81
2022/06/09 06:02:58;;;;;;;31.98;20.70;;;15.40;99.90;;;;;;5047794;28;20076;-82
2022/06/09 06:08:08;;;;;;;31.98;22.10;;;15.40;99.90;;;;;;5038129;28;20057;-82
2022/06/09 06:10:34;;;;;;;36.38;23.20;;;15.40;99.90;;;;;;5044817;28;20060;-83
2022/06/09 06:13:00;;;;;;;33.38;22.60;;;15.40;99.90;;;;;;5045718;28;20760;-82
2022/06/09 06:15:26;;;;;;;37.42;23.85;;;15.40;99.90;;;;;;5048322;28;20033;-82
2022/06/09 06:17:54;;;;;;;40.00;24.30;;;15.50;99.90;;;;;;5048156;28;20029;-83
2022/06/09 06:20:20;;;;;;;41.85;24.80;;;15.50;99.90;;;;;;5047529;28;20094;-84
2022/06/09 06:22:46;;;;;;;32.97;22.98;;;15.50;99.90;;;;;;5049892;28;20048;-85
2022/06/09 06:25:12;;;;;;;34.50;23.75;;;15.50;99.90;;;;;;5047817;28;20121;-82
2022/06/09 06:27:38;;;;;;;37.17;22.85;;;15.50;99.90;;;;;;5067333;28;20098;-83
2022/06/09 06:30:05;;;;;;;29.55;21.40;;;15.50;99.90;;;;;;5047430;28;20048;-82
2022/06/09 06:32:30;;;;;;;32.58;21.23;;;15.50;99.90;;;;;;5047876;28;20130;-83
2022/06/09 06:34:56;;;;;;;26.73;21.33;;;15.60;99.90;;;;;;5046822;28;20090;-83
2022/06/09 06:37:21;;;;;;;27.52;20.17;;;15.60;99.90;;;;;;5046005;28;20648;-84
2022/06/09 06:39:47;;;;;;;27.20;19.13;;;15.70;99.90;;;;;;5048656;28;20049;-80
2022/06/09 06:42:12;;;;;;;28.55;20.52;;;15.60;99.90;;;;;;5042475;28;20133;-80
2022/06/09 06:44:38;;;;;;;31.73;20.73;;;15.70;99.90;;;;;;5039575;28;20049;-80
2022/06/09 06:47:04;;;;;;;26.63;18.63;;;15.70;99.90;;;;;;5045558;28;20124;-80
2022/06/09 06:49:29;;;;;;;21.77;17.70;;;15.80;99.90;;;;;;5048821;28;20144;-80
2022/06/09 06:51:55;;;;;;;23.17;17.83;;;15.80;99.90;;;;;;5045656;28;20659;-80
2022/06/09 06:54:21;;;;;;;23.92;16.88;;;15.80;99.90;;;;;;5044760;28;20068;-80
2022/06/09 06:56:46;;;;;;;25.50;18.85;;;15.90;99.90;;;;;;5045274;28;20049;-80
2022/06/09 06:59:12;;;;;;;21.67;17.65;;;16.00;99.90;;;;;;5047035;28;20045;-80
2022/06/09 07:01:37;;;;;;;21.73;17.08;;;16.00;99.90;;;;;;5040415;28;20075;-81
2022/06/09 07:04:03;;;;;;;23.75;17.85;;;16.00;99.90;;;;;;5043356;28;20258;-81
2022/06/09 07:06:29;;;;;;;24.70;17.98;;;16.10;99.90;;;;;;5044596;28;20084;-80
2022/06/09 07:08:55;;;;;;;21.90;16.65;;;16.10;99.90;;;;;;5044133;28;20127;-80
2022/06/09 07:11:20;;;;;;;24.15;15.77;;;16.20;99.90;;;;;;5048041;28;20047;-80
2022/06/09 07:13:46;;;;;;;21.05;15.05;;;16.20;99.90;;;;;;5047404;28;20417;-78
2022/06/09 07:16:12;;;;;;;20.17;14.05;;;16.30;99.90;;;;;;5044759;28;20120;-81
2022/06/09 07:18:38;;;;;;;16.50;13.50;;;16.30;99.90;;;;;;5043210;28;20053;-77
2022/06/09 07:21:05;;;;;;;20.08;13.32;;;16.30;99.90;;;;;;5065799;28;20033;-79
2022/06/09 07:23:31;;;;;;;23.13;15.82;;;16.40;99.90;;;;;;5042907;28;20047;-80
2022/06/09 07:25:59;;;;;;;20.50;14.65;;;16.50;99.90;;;;;;5040194;28;20489;-80
2022/06/09 07:28:26;;;;;;;16.90;13.50;;;16.50;99.90;;;;;;5040883;28;20052;-73
2022/06/09 07:30:59;;;;;;;17.40;13.27;;;16.50;99.90;;;;;;5049248;28;20114;-78
2022/06/09 07:33:31;;;;;;;16.33;12.05;;;16.60;99.90;;;;;;5045297;28;20076;-79
2022/06/09 07:35:57;;;;;;;16.58;10.93;;;16.60;99.90;;;;;;5044721;28;20041;-79
2022/06/09 07:38:25;;;;;;;14.70;9.55;;;16.50;99.90;;;;;;5043622;28;20060;-79
2022/06/09 07:40:51;;;;;;;13.13;9.32;;;16.60;99.90;;;;;;5043323;28;20099;-79
2022/06/09 07:43:19;;;;;;;14.50;9.35;;;16.60;99.90;;;;;;5042865;28;20037;-79
2022/06/09 07:45:45;;;;;;;16.52;9.65;;;16.60;99.90;;;;;;5046394;28;20115;-79
2022/06/09 07:48:11;;;;;;;17.92;10.43;;;16.70;99.90;;;;;;5040156;28;20041;-79
2022/06/09 07:50:38;;;;;;;14.05;9.60;;;16.80;99.90;;;;;;5043013;28;20102;-80
2022/06/09 07:53:03;;;;;;;13.63;8.57;;;16.80;99.90;;;;;;5044344;28;20049;-79
2022/06/09 07:55:29;;;;;;;14.07;9.10;;;16.90;99.90;;;;;;5043312;28;20053;-80
2022/06/09 07:57:55;;;;;;;11.52;7.30;;;17.00;99.90;;;;;;5047281;28;20500;-79
2022/06/09 08:00:22;;;;;;;8.68;6.18;;;16.90;99.90;;;;;;5044645;28;20479;-79
2022/06/09 08:02:50;;;;;;;6.75;4.38;;;17.00;99.90;;;;;;5036146;28;20103;-79
2022/06/09 08:05:17;;;;;;;8.93;4.10;;;17.00;99.90;;;;;;5039535;28;20182;-78
2022/06/09 08:07:44;;;;;;;7.95;4.30;;;17.00;99.90;;;;;;5048068;28;20056;-78
2022/06/09 08:10:17;;;;;;;7.20;4.20;;;17.10;99.90;;;;;;5041239;28;20077;-78
2022/06/09 08:12:44;;;;;;;8.38;3.97;;;17.20;99.90;;;;;;5034202;28;20128;-79
2022/06/09 08:15:11;;;;;;;4.80;3.42;;;17.20;99.90;;;;;;5039277;28;20131;-78
2022/06/09 08:17:38;;;;;;;7.55;3.88;;;17.20;99.90;;;;;;5041171;28;20049;-78
2022/06/09 08:20:05;;;;;;;8.85;3.72;;;17.20;99.90;;;;;;5035694;28;21637;-78
2022/06/09 08:22:31;;;;;;;6.25;3.22;;;17.30;99.90;;;;;;5039265;28;20033;-78
2022/06/09 08:24:57;;;;;;;6.97;3.03;;;17.30;99.90;;;;;;5043138;28;20071;-78
2022/06/09 08:27:23;;;;;;;8.55;3.17;;;17.30;99.90;;;;;;5046469;28;20069;-78
2022/06/09 08:29:49;;;;;;;5.57;3.10;;;17.40;99.90;;;;;;5042616;28;20701;-79
2022/06/09 08:32:15;;;;;;;8.98;3.45;;;17.40;99.90;;;;;;5038240;28;20045;-78
2022/06/09 08:34:41;;;;;;;6.50;3.47;;;17.40;99.90;;;;;;5043815;28;20053;-78
2022/06/09 08:37:07;;;;;;;4.85;2.13;;;17.50;99.90;;;;;;5026310;28;20120;-78
2022/06/09 08:39:33;;;;;;;6.75;2.70;;;17.50;99.90;;;;;;5038358;28;20064;-77
2022/06/09 08:42:07;;;;;;;7.38;2.10;;;17.60;99.90;;;;;;5040258;28;20049;-78
2022/06/09 08:44:52;;;;;;;12.90;2.55;;;17.60;99.90;;;;;;5038414;28;20559;-77
2022/06/09 08:47:40;;;;;;;6.90;2.08;;;17.70;99.90;;;;;;5038323;28;20493;-78
2022/06/09 08:50:26;;;;;;;7.50;1.90;;;17.80;99.90;;;;;;5031563;28;20069;-78
2022/06/09 08:52:54;;;;;;;7.05;1.95;;;17.80;99.90;;;;;;5036042;28;20584;-79
2022/06/09 08:55:40;;;;;;;5.90;2.75;;;17.90;99.90;;;;;;5046867;28;20061;-79
2022/06/09 08:58:22;;;;;;;6.38;1.73;;;17.90;99.90;;;;;;5037664;28;20132;-79
2022/06/09 09:01:24;;;;;;;2.17;0.98;;;17.90;99.90;;;;;;5034289;28;20433;-79
2022/06/09 09:03:57;;;;;;;;;;;18.00;99.90;;;;;;5019487;28;20053;-78
2022/06/09 09:06:49;;;;;;;7.03;1.42;;;17.90;99.90;;;;;;5075532;28;19921;-80
2022/06/09 09:09:22;;;;;;;5.88;2.30;;;17.90;99.90;;;;;;5080388;28;20041;-79
2022/06/09 09:12:15;;;;;;;6.05;1.90;;;17.90;99.90;;;;;;5041067;28;20064;-80
2022/06/09 09:15:08;;;;;;;4.75;1.40;;;18.00;99.90;;;;;;5049649;28;20044;-79
2022/06/09 09:17:48;;;;;;;5.35;1.42;;;18.10;99.90;;;;;;5040078;28;20102;-80
2022/06/09 09:20:26;;;;;;;5.28;1.38;;;18.10;99.90;;;;;;5045282;28;20075;-79
2022/06/09 09:23:01;;;;;;;6.90;1.50;;;18.20;99.90;;;;;;5057474;28;20053;-79
2022/06/09 09:25:40;;;;;;;4.70;1.20;;;18.20;99.90;;;;;;5044712;28;20040;-79
2022/06/09 09:28:27;;;;;;;6.32;1.65;;;18.30;99.90;;;;;;5047607;28;20385;-77
2022/06/09 09:31:30;;;;;;;6.72;1.60;;;18.30;99.90;;;;;;5043547;28;20045;-76
2022/06/09 09:33:56;;;;;;;3.10;1.10;;;18.30;99.90;;;;;;5040210;28;20044;-76
2022/06/09 09:36:28;;;;;;;4.70;1.40;;;18.30;99.90;;;;;;5045708;28;20044;-76
2022/06/09 09:39:16;;;;;;;5.47;1.15;;;18.40;99.90;;;;;;5047464;28;20044;-79
2022/06/09 09:41:43;;;;;;;7.43;1.30;;;18.40;99.90;;;;;;5039803;28;20076;-80
2022/06/09 09:44:27;;;;;;;6.05;0.90;;;18.40;99.90;;;;;;5046187;28;20082;-80
2022/06/09 09:46:59;;;;;;;8.18;1.55;;;18.40;99.90;;;;;;5038466;28;20045;-78
2022/06/09 09:49:52;;;;;;;5.50;1.15;;;18.40;99.90;;;;;;5046813;28;20067;-79
2022/06/09 09:52:45;;;;;;;7.30;1.27;;;18.30;99.90;;;;;;5044853;28;20057;-78
2022/06/09 09:55:33;;;;;;;4.57;1.10;;;18.40;99.90;;;;;;5047520;28;20049;-75
2022/06/09 09:58:23;;;;;;;5.20;1.30;;;18.40;99.90;;;;;;5043954;28;20122;-79
2022/06/09 10:01:00;;;;;;;8.77;1.40;;;18.40;99.90;;;;;;5045021;28;20062;-79
2022/06/09 10:09:28;;;;;;;6.13;2.00;;;18.50;99.90;;;;;;5037837;28;20046;-78
2022/06/09 10:11:58;;;;;;;7.18;2.30;;;18.60;99.90;;;;;;5033351;28;20468;-78
2022/06/09 10:14:40;;;;;;;8.00;1.55;;;18.70;99.90;;;;;;5045007;28;20056;-78
2022/06/09 10:17:19;;;;;;;8.38;1.70;;;18.80;99.90;;;;;;5048134;28;20044;-79
2022/06/09 10:20:12;;;;;;;5.50;1.85;;;18.80;99.90;;;;;;5044263;28;20081;-78
2022/06/09 10:22:38;;;;;;;5.03;1.58;;;18.90;99.90;;;;;;5029140;28;20125;-79
2022/06/09 10:25:17;;;;;;;6.43;1.60;;;18.90;99.90;;;;;;5034705;28;20080;-80
2022/06/09 10:27:45;;;;;;;4.93;1.42;;;19.00;99.90;;;;;;5046616;28;20053;-79
2022/06/09 10:30:14;;;;;;;6.28;1.13;;;19.00;99.90;;;;;;5044999;28;20683;-79
2022/06/09 10:32:50;;;;;;;5.72;1.30;;;19.00;99.90;;;;;;5048049;28;20076;-79
2022/06/09 10:35:25;;;;;;;3.00;1.00;;;19.10;99.90;;;;;;5034441;28;20401;-78
2022/06/09 10:38:14;;;;;;;5.10;1.27;;;19.10;99.90;;;;;;5035701;28;20480;-80
2022/06/09 10:40:44;;;;;;;9.77;1.88;;;19.20;99.90;;;;;;5044110;28;20071;-78
2022/06/09 10:43:16;;;;;;;9.35;1.85;;;19.30;99.90;;;;;;5041689;28;20045;-78
2022/06/09 10:45:42;;;;;;;5.13;1.42;;;19.30;99.90;;;;;;5040158;28;20247;-79
2022/06/09 10:57:47;;;;;;;4.10;1.02;;;19.40;99.90;;;;;;5047091;28;20048;-78
2022/06/09 11:00:23;;;;;;;5.75;1.65;;;19.40;99.90;;;;;;5046362;28;20465;-80
2022/06/09 11:02:53;;;;;;;4.93;1.40;;;19.40;99.90;;;;;;5046855;28;20122;-77
2022/06/09 11:05:32;;;;;;;6.00;1.40;;;19.40;99.90;;;;;;5045861;28;20166;-77
2022/06/09 11:08:23;;;;;;;6.88;1.38;;;19.30;99.90;;;;;;5048733;28;20056;-78
2022/06/09 11:11:15;;;;;;;4.70;1.70;;;19.30;99.90;;;;;;5050104;28;20053;-76
2022/06/09 11:13:55;;;;;;;10.07;1.88;;;19.30;99.90;;;;;;5042565;28;20052;-77
2022/06/09 11:16:45;;;;;;;7.30;1.33;;;19.20;99.90;;;;;;5039496;28;20388;-76
2022/06/09 11:19:26;;;;;;;7.32;1.40;;;19.20;99.90;;;;;;5045009;28;20041;-77
2022/06/09 11:22:01;;;;;;;6.57;1.47;;;19.20;99.90;;;;;;5068900;28;20053;-79
2022/06/09 11:24:33;;;;;;;5.60;1.70;;;19.10;99.90;;;;;;5047463;28;20420;-76
2022/06/09 11:27:23;;;;;;;3.97;1.10;;;19.20;99.90;;;;;;5034821;28;20040;-77
2022/06/09 11:30:10;;;;;;;4.50;1.40;;;19.30;99.90;;;;;;5047363;28;20476;-77
2022/06/09 11:32:42;;;;;;;7.80;1.92;;;19.30;99.90;;;;;;5044397;28;20063;-78
2022/06/09 11:35:23;;;;;;;4.78;1.23;;;19.40;99.90;;;;;;5047987;28;20065;-77
2022/06/09 11:37:54;;;;;;;4.38;0.95;;;19.60;99.90;;;;;;5047313;28;20692;-77
2022/06/09 11:40:47;;;;;;;6.05;1.20;;;19.60;99.90;;;;;;5048801;28;20057;-77
2022/06/09 11:43:33;;;;;;;6.63;1.30;;;19.80;99.90;;;;;;5048164;28;20784;-78
2022/06/09 11:46:07;;;;;;;3.75;1.20;;;19.90;99.90;;;;;;5028365;28;20057;-78
2022/06/09 11:49:02;;;;;;;8.80;1.40;;;20.00;99.90;;;;;;5029134;28;20136;-77
2022/06/09 11:51:30;;;;;;;6.30;1.40;;;20.10;99.90;;;;;;5030398;28;20068;-77
2022/06/09 11:54:07;;;;;;;6.72;1.17;;;20.20;99.90;;;;;;5048077;28;20049;-79
2022/06/09 11:56:40;;;;;;;5.72;1.00;;;20.30;99.90;;;;;;5047307;28;20145;-78
2022/06/09 11:59:12;;;;;;;6.30;1.33;;;20.30;99.90;;;;;;5049526;28;20485;-77
2022/06/09 12:01:37;;;;;;;7.47;1.38;;;20.20;99.90;;;;;;5047009;28;20397;-78
2022/06/09 12:04:26;;;;;;;7.03;1.50;;;20.20;99.90;;;;;;5048871;28;20233;-78
2022/06/09 12:07:16;;;;;;;8.13;1.25;;;20.30;99.90;;;;;;5045828;28;20049;-76
2022/06/09 12:10:18;;;;;;;4.40;1.15;;;20.40;99.90;;;;;;5042603;28;20045;-78
2022/06/09 12:13:01;;;;;;;10.77;1.52;;;20.40;99.90;;;;;;5046008;28;20118;-79
2022/06/09 12:15:45;;;;;;;6.97;1.45;;;20.40;99.90;;;;;;5048057;28;20124;-77
2022/06/09 12:18:15;;;;;;;3.67;1.20;;;20.40;99.90;;;;;;5046732;28;20122;-76
2022/06/09 12:21:22;;;;;;;9.70;1.33;;;20.40;99.90;;;;;;5081165;28;20376;-76
2022/06/09 12:23:51;;;;;;;7.80;1.48;;;20.50;99.90;;;;;;5042195;28;20139;-76
2022/06/09 12:26:19;;;;;;;6.20;1.30;;;20.50;99.90;;;;;;5048758;28;20509;-76
2022/06/09 12:28:53;;;;;;;18.83;1.77;;;20.60;99.90;;;;;;5046400;28;20049;-76
2022/06/09 12:31:37;;;;;;;5.50;0.95;;;20.70;99.90;;;;;;5048236;28;20048;-76
2022/06/09 12:34:13;;;;;;;5.13;1.42;;;20.80;99.90;;;;;;5049292;28;20138;-77
2022/06/09 12:36:52;;;;;;;6.22;1.45;;;20.90;99.90;;;;;;5047154;28;20041;-76
2022/06/09 12:39:23;;;;;;;6.40;1.42;;;21.00;99.90;;;;;;5046970;28;20045;-77
2022/06/09 12:41:52;;;;;;;6.75;1.10;;;21.00;99.90;;;;;;5046407;28;20049;-76
2022/06/09 12:44:42;;;;;;;5.75;1.20;;;21.10;99.90;;;;;;5047598;28;20163;-77
2022/06/09 12:47:16;;;;;;;4.85;1.00;;;21.20;99.90;;;;;;5046236;28;20041;-78
2022/06/09 12:49:43;;;;;;;4.82;1.10;;;21.10;99.90;;;;;;5047777;28;20053;-77
2022/06/09 12:52:30;;;;;;;6.85;0.98;;;21.20;99.90;;;;;;5046891;28;20124;-76
2022/06/09 12:55:02;;;;;;;5.50;1.25;;;21.10;99.90;;;;;;5048908;28;20049;-77
2022/06/09 12:57:31;;;;;;;4.45;1.10;;;21.10;99.90;;;;;;5048219;28;20049;-76
2022/06/09 13:00:12;;;;;;;4.00;1.25;;;21.10;99.90;;;;;;5048171;28;20385;-77
2022/06/09 13:02:39;;;;;;;5.95;1.15;;;21.20;99.90;;;;;;5046166;28;20056;-77
2022/06/09 13:05:16;;;;;;;5.97;1.27;;;21.20;99.90;;;;;;5047251;28;20221;-76
2022/06/09 13:07:58;;;;;;;8.95;1.17;;;21.10;99.90;;;;;;5034974;28;20092;-76
2022/06/09 13:10:30;;;;;;;7.85;1.65;;;21.00;99.90;;;;;;5045832;28;20047;-77
2022/06/09 13:13:20;;;;;;;10.68;1.58;;;20.90;99.90;;;;;;5047495;28;20048;-78
2022/06/09 13:16:02;;;;;;;6.13;1.42;;;20.90;99.90;;;;;;5047038;28;20126;-76
2022/06/09 13:18:33;;;;;;;6.85;1.20;;;20.90;99.90;;;;;;5046996;28;20045;-76
2022/06/09 13:21:15;;;;;;;9.98;2.00;;;21.00;99.90;;;;;;5045831;28;20041;-76
2022/06/09 13:23:43;;;;;;;5.97;1.30;;;21.00;99.90;;;;;;5047548;28;20049;-77
2022/06/09 13:26:14;;;;;;;5.00;1.33;;;20.90;99.90;;;;;;5047449;28;20110;-76